createdAt,value
2019-03-21T00:00:01.365Z,9
2019-03-21T00:05:01.996Z,6
2019-03-21T00:10:01.820Z,8
2019-03-21T00:15:01.878Z,9
2019-03-21T00:20:01.347Z,9
2019-03-21T00:25:01.728Z,8
2019-03-21T00:30:02.125Z,10
2019-03-21T00:35:01.468Z,8
2019-03-21T00:40:02.259Z,7
2019-03-21T00:45:01.614Z,11
2019-03-21T00:50:01.988Z,8
2019-03-21T00:55:01.361Z,11
2019-03-21T01:00:01.682Z,8
2019-03-21T01:05:01.343Z,8
2019-03-21T01:10:02.165Z,8
2019-03-21T01:15:02.466Z,10
2019-03-21T01:20:01.900Z,8
2019-03-21T01:25:02.312Z,9
2019-03-21T01:30:01.661Z,10
2019-03-21T01:35:02.008Z,10
2019-03-21T01:40:01.854Z,10
2019-03-21T01:45:02.201Z,9
2019-03-21T01:50:01.579Z,11
2019-03-21T01:55:01.969Z,11
2019-03-21T02:00:01.337Z,9
2019-03-21T02:05:02.002Z,10
2019-03-21T02:10:01.814Z,10
2019-03-21T02:15:02.180Z,13
2019-03-21T02:20:01.619Z,9
2019-03-21T02:25:01.967Z,12
2019-03-21T02:30:01.365Z,9
2019-03-21T02:35:01.716Z,13
2019-03-21T02:40:01.544Z,13
2019-03-21T02:45:08.443Z,13
2019-03-21T02:50:01.868Z,12
2019-03-21T02:55:02.271Z,13
2019-03-21T03:00:01.583Z,16
2019-03-21T03:05:02.255Z,13
2019-03-21T03:10:02.112Z,11
2019-03-21T03:15:02.037Z,13
2019-03-21T03:20:01.761Z,14
2019-03-21T03:25:02.182Z,13
2019-03-21T03:30:01.566Z,12
2019-03-21T03:35:02.056Z,15
2019-03-21T03:40:02.024Z,14
2019-03-21T03:45:01.342Z,13
2019-03-21T03:50:01.722Z,15
2019-03-21T03:55:02.109Z,12
2019-03-21T04:00:01.524Z,13
2019-03-21T04:05:02.197Z,15
2019-03-21T04:10:02.057Z,22
2019-03-21T04:15:01.425Z,17
2019-03-21T04:20:01.954Z,20
2019-03-21T04:25:01.331Z,21
2019-03-21T04:30:01.712Z,23
2019-03-21T04:35:02.121Z,19
2019-03-21T04:40:01.909Z,18
2019-03-21T04:45:02.286Z,21
2019-03-21T04:50:01.635Z,24
2019-03-21T04:55:01.988Z,23
2019-03-21T05:00:03.531Z,22
2019-03-21T05:05:01.480Z,19
2019-03-21T05:10:02.292Z,20
2019-03-21T05:15:01.708Z,20
2019-03-21T05:20:02.190Z,13
2019-03-21T05:25:01.544Z,18
2019-03-21T05:30:01.921Z,22
2019-03-21T05:35:06.880Z,23
2019-03-21T05:40:01.585Z,19
2019-03-21T05:45:01.971Z,24
2019-03-21T05:50:01.337Z,15
2019-03-21T05:55:01.674Z,12
2019-03-21T06:00:02.050Z,14
2019-03-21T06:05:01.710Z,12
2019-03-21T06:10:01.528Z,15
2019-03-21T06:15:01.605Z,12
2019-03-21T06:20:04.008Z,8
2019-03-21T06:25:01.711Z,10
2019-03-21T06:30:02.099Z,11
2019-03-21T06:35:01.449Z,15
2019-03-21T06:40:02.286Z,21
2019-03-21T06:45:01.574Z,9
2019-03-21T06:50:01.989Z,12
2019-03-21T06:55:01.318Z,12
2019-03-21T07:00:01.618Z,23
2019-03-21T07:05:02.314Z,10
2019-03-21T07:10:02.062Z,11
2019-03-21T07:15:04.392Z,10
2019-03-21T07:20:02.105Z,14
2019-03-21T07:25:01.478Z,12
2019-03-21T07:30:01.832Z,12
2019-03-21T07:35:02.206Z,12
2019-03-21T07:40:02.079Z,10
2019-03-21T07:45:01.489Z,14
2019-03-21T07:50:01.854Z,8
2019-03-21T07:55:02.227Z,11
2019-03-21T08:00:01.549Z,10
2019-03-21T08:05:02.440Z,7
2019-03-21T08:10:02.278Z,11
2019-03-21T08:15:01.535Z,13
2019-03-21T08:20:01.998Z,15
2019-03-21T08:25:01.327Z,30
2019-03-21T08:30:01.696Z,13
2019-03-21T08:35:02.090Z,9
2019-03-21T08:40:01.914Z,7
2019-03-21T08:45:02.306Z,7
2019-03-21T08:50:01.658Z,6
2019-03-21T08:55:02.002Z,7
2019-03-21T09:00:01.320Z,5
2019-03-21T09:05:01.987Z,6
2019-03-21T09:10:01.814Z,5
2019-03-21T09:15:02.292Z,6
2019-03-21T09:20:01.758Z,7
2019-03-21T09:25:04.675Z,5
2019-03-21T09:30:02.339Z,5
2019-03-21T09:35:01.697Z,7
2019-03-21T09:40:01.446Z,7
2019-03-21T09:45:01.844Z,8
2019-03-21T09:50:02.212Z,9
2019-03-21T09:55:01.574Z,8
2019-03-21T10:00:01.951Z,5
2019-03-21T10:05:01.615Z,5
2019-03-21T10:10:01.432Z,5
2019-03-21T10:15:01.378Z,5
2019-03-21T10:20:01.827Z,5
2019-03-21T10:25:02.198Z,5
2019-03-21T10:30:01.518Z,5
2019-03-21T10:35:01.867Z,5
2019-03-21T10:40:01.682Z,12
2019-03-21T10:45:02.061Z,5
2019-03-21T10:50:01.421Z,6
2019-03-21T10:55:01.811Z,5
2019-03-21T11:00:02.474Z,7
2019-03-21T11:05:02.184Z,8
2019-03-21T11:10:01.984Z,8
2019-03-21T11:15:01.736Z,8
2019-03-21T11:20:01.834Z,8
2019-03-21T11:25:02.181Z,8
2019-03-21T11:30:01.494Z,8
2019-03-21T11:35:01.881Z,8
2019-03-21T11:40:01.742Z,8
2019-03-21T11:45:02.080Z,8
2019-03-21T11:50:01.498Z,8
2019-03-21T11:55:01.880Z,5
2019-03-21T12:00:02.186Z,5
2019-03-21T12:05:01.843Z,6
2019-03-21T12:10:01.632Z,6
2019-03-21T12:15:02.239Z,6
2019-03-21T12:20:01.696Z,6
2019-03-21T12:25:02.067Z,8
2019-03-21T12:30:01.458Z,8
2019-03-21T12:35:01.833Z,7
2019-03-21T12:40:01.648Z,8
2019-03-21T12:45:01.990Z,7
2019-03-21T12:50:01.374Z,8
2019-03-21T12:55:01.756Z,6
2019-03-21T13:00:02.177Z,8
2019-03-21T13:05:01.805Z,8
2019-03-21T13:10:01.621Z,9
2019-03-21T13:15:01.908Z,7
2019-03-21T13:20:01.396Z,7
2019-03-21T13:25:01.998Z,7
2019-03-21T13:30:03.462Z,7
2019-03-21T13:35:02.123Z,7
2019-03-21T13:40:01.892Z,7
2019-03-21T13:45:02.282Z,7
2019-03-21T13:50:01.622Z,7
2019-03-21T13:55:01.991Z,7
2019-03-21T14:00:01.340Z,6
2019-03-21T14:05:01.968Z,8
2019-03-21T14:10:01.797Z,8
2019-03-21T14:15:01.586Z,6
2019-03-21T14:20:02.044Z,6
2019-03-21T14:25:01.397Z,4
2019-03-21T14:30:02.387Z,6
2019-03-21T14:35:01.903Z,7
2019-03-21T14:40:01.725Z,9
2019-03-21T14:45:02.071Z,7
2019-03-21T14:50:01.485Z,9
2019-03-21T14:55:01.866Z,8
2019-03-21T15:00:02.263Z,5
2019-03-21T15:05:01.893Z,5
2019-03-21T15:10:01.690Z,7
2019-03-21T15:15:01.548Z,6
2019-03-21T15:20:01.999Z,5
2019-03-21T15:25:01.382Z,5
2019-03-21T15:30:01.813Z,7
2019-03-21T15:35:02.214Z,7
2019-03-21T15:40:02.001Z,6
2019-03-21T15:45:15.587Z,6
2019-03-21T15:50:01.859Z,6
2019-03-21T15:55:02.205Z,6
2019-03-21T16:00:01.580Z,6
2019-03-21T16:05:02.210Z,6
2019-03-21T16:10:02.048Z,3
2019-03-21T16:15:02.258Z,4
2019-03-21T16:20:01.692Z,5
2019-03-21T16:25:02.117Z,6
2019-03-21T16:30:01.520Z,8
2019-03-21T16:35:01.877Z,6
2019-03-21T16:40:01.710Z,5
2019-03-21T16:45:02.106Z,9
2019-03-21T16:50:01.474Z,9
2019-03-21T16:55:01.829Z,11
2019-03-21T17:00:02.221Z,15
2019-03-21T17:05:01.836Z,12
2019-03-21T17:10:01.756Z,10
2019-03-21T17:15:01.605Z,12
2019-03-21T17:20:03.698Z,10
2019-03-21T17:25:02.313Z,9
2019-03-21T17:30:01.663Z,12
2019-03-21T17:35:02.011Z,8
2019-03-21T17:40:01.808Z,7
2019-03-21T17:45:02.164Z,10
2019-03-21T17:50:01.541Z,11
2019-03-21T17:55:01.881Z,8
2019-03-21T18:00:02.250Z,8
2019-03-21T18:05:01.874Z,9
2019-03-21T18:10:01.736Z,10
2019-03-21T18:15:02.222Z,11
2019-03-21T18:20:01.637Z,11
2019-03-21T18:25:01.994Z,10
2019-03-21T18:30:01.335Z,8
2019-03-21T18:35:01.659Z,9
2019-03-21T18:40:01.514Z,13
2019-03-21T18:45:02.098Z,11
2019-03-21T18:50:01.490Z,10
2019-03-21T18:55:06.749Z,12
2019-03-21T19:00:01.453Z,9
2019-03-21T19:05:02.082Z,12
2019-03-21T19:10:01.919Z,11
2019-03-21T19:15:02.054Z,11
2019-03-21T19:20:01.458Z,8
2019-03-21T19:25:02.062Z,10
2019-03-21T19:30:01.425Z,10
2019-03-21T19:35:01.783Z,10
2019-03-21T19:40:01.565Z,10
2019-03-21T19:45:01.946Z,12
2019-03-21T19:50:02.314Z,8
2019-03-21T19:55:01.641Z,8
2019-03-21T20:00:01.950Z,12
2019-03-21T20:05:01.636Z,12
2019-03-21T20:10:01.464Z,9
2019-03-21T20:15:02.236Z,13
2019-03-21T20:20:01.672Z,11
2019-03-21T20:25:02.042Z,13
2019-03-21T20:30:01.394Z,11
2019-03-21T20:35:01.752Z,15
2019-03-21T20:40:01.567Z,15
2019-03-21T20:45:01.932Z,14
2019-03-21T20:50:02.283Z,13
2019-03-21T20:55:01.614Z,13
2019-03-21T21:00:01.949Z,16
2019-03-21T21:05:01.614Z,11
2019-03-21T21:10:01.395Z,13
2019-03-21T21:15:01.496Z,20
2019-03-21T21:20:01.980Z,19
2019-03-21T21:25:01.363Z,15
2019-03-21T21:30:01.726Z,22
2019-03-21T21:35:02.114Z,14
2019-03-21T21:40:01.957Z,16
2019-03-21T21:45:01.376Z,18
2019-03-21T21:50:01.728Z,17
2019-03-21T21:55:02.077Z,20
2019-03-21T22:00:01.394Z,19
2019-03-21T22:05:02.024Z,21
2019-03-21T22:10:01.852Z,23
2019-03-21T22:15:01.690Z,20
2019-03-21T22:20:02.160Z,21
2019-03-21T22:25:01.508Z,22
2019-03-21T22:30:04.231Z,21
2019-03-21T22:35:01.881Z,24
2019-03-21T22:40:01.713Z,21
2019-03-21T22:45:02.325Z,21
2019-03-21T22:50:01.689Z,20
2019-03-21T22:55:02.054Z,22
2019-03-21T23:00:01.421Z,23
2019-03-21T23:05:02.103Z,19
2019-03-21T23:10:01.931Z,20
2019-03-21T23:15:02.290Z,22
2019-03-21T23:20:02.229Z,21
2019-03-21T23:25:01.563Z,22
2019-03-21T23:30:01.645Z,22
2019-03-21T23:35:02.244Z,23
2019-03-21T23:40:02.083Z,25
2019-03-21T23:45:01.659Z,19
2019-03-21T23:50:02.018Z,22
2019-03-21T23:55:01.427Z,25
